Time;durP1;ratioP1;P1;durP2;ratioP2;P2;SDS_P1;SDS_P2;PMS_P1;PMS_P2;Temp;Humidity;BMP_temperature;BMP_pressure;BME280_temperature;BME280_humidity;BME280_pressure;Samples;Min_cycle;Max_cycle;Signal;HPM_P1;HPM_P2
2022/07/31 00:01:36;;;;;;;1999.90;999.90;;;23.20;95.30;;;;;;5032759;28;20446;-71
2022/07/31 00:04:02;;;;;;;1999.90;999.90;;;23.10;96.50;;;;;;5032527;28;20446;-71
2022/07/31 00:06:27;;;;;;;1999.90;999.90;;;23.00;98.40;;;;;;5031657;28;20204;-73
2022/07/31 00:08:53;;;;;;;1999.90;999.90;;;23.00;99.10;;;;;;5031643;28;20438;-73
2022/07/31 00:11:18;;;;;;;1999.90;999.90;;;22.90;99.90;;;;;;5035673;28;20556;-73
2022/07/31 00:13:44;;;;;;;1999.90;999.90;;;22.80;99.90;;;;;;5035195;28;20230;-74
2022/07/31 00:16:10;;;;;;;1999.90;999.90;;;22.80;99.90;;;;;;5033600;28;20208;-73
2022/07/31 00:18:35;;;;;;;1999.90;999.90;;;22.80;99.90;;;;;;5034052;28;20176;-73
2022/07/31 00:21:01;;;;;;;1999.90;999.90;;;22.80;99.90;;;;;;5033831;28;20176;-74
2022/07/31 00:23:28;;;;;;;1999.90;999.90;;;22.80;99.90;;;;;;5034566;28;20204;-73
2022/07/31 00:25:54;;;;;;;1999.90;999.90;;;22.90;99.90;;;;;;5036361;28;20468;-73
2022/07/31 00:28:19;;;;;;;1999.90;999.90;;;22.90;99.90;;;;;;5036276;28;20383;-73
2022/07/31 00:30:45;;;;;;;1999.90;999.90;;;22.90;99.90;;;;;;5037261;28;20172;-74
2022/07/31 00:33:11;;;;;;;1999.90;999.90;;;22.90;99.90;;;;;;5037328;28;20177;-74
2022/07/31 00:35:37;;;;;;;1999.90;999.90;;;22.80;99.90;;;;;;5036910;28;20188;-73
2022/07/31 00:38:02;;;;;;;1999.90;999.90;;;22.80;99.90;;;;;;5035479;28;20173;-71
2022/07/31 00:40:28;;;;;;;1999.90;999.90;;;22.80;99.90;;;;;;5035988;28;20177;-72
2022/07/31 00:42:53;;;;;;;1999.90;999.90;;;22.80;99.90;;;;;;5035294;28;20176;-72
2022/07/31 00:45:19;;;;;;;1999.90;999.90;;;22.80;99.90;;;;;;5034560;28;20224;-72
2022/07/31 00:47:45;;;;;;;1999.90;999.90;;;22.70;99.90;;;;;;5033814;28;20173;-71
2022/07/31 00:50:11;;;;;;;1999.90;999.90;;;22.70;99.90;;;;;;5034557;28;20178;-72
2022/07/31 00:52:37;;;;;;;1999.90;999.90;;;22.60;99.90;;;;;;5034919;28;20180;-71
2022/07/31 00:55:04;;;;;;;1999.90;999.90;;;22.50;99.90;;;;;;5035070;28;20475;-72
2022/07/31 00:57:30;;;;;;;1999.90;999.90;;;22.50;99.90;;;;;;5035824;28;20416;-70
2022/07/31 00:59:56;;;;;;;1999.90;999.90;;;22.50;99.90;;;;;;5035550;28;20409;-71
2022/07/31 01:02:21;;;;;;;1999.90;999.90;;;22.50;99.90;;;;;;5034860;28;20205;-70
2022/07/31 01:04:47;;;;;;;1999.90;999.90;;;22.40;99.90;;;;;;5035810;28;20207;-71
2022/07/31 01:07:13;;;;;;;1999.90;999.90;;;22.40;99.90;;;;;;5035658;28;20183;-72
2022/07/31 01:09:38;;;;;;;1999.90;999.90;;;22.40;99.90;;;;;;5034915;28;20179;-71
2022/07/31 01:12:30;;;;;;;1999.90;999.90;;;22.30;99.90;;;;;;5034231;28;20176;-71
2022/07/31 01:15:03;;;;;;;1999.90;999.90;;;22.30;99.90;;;;;;5035084;28;20253;-72
2022/07/31 01:17:30;;;;;;;1999.90;999.90;;;22.20;99.90;;;;;;5033903;28;20378;-71
2022/07/31 01:19:57;;;;;;;1999.90;999.90;;;22.20;99.90;;;;;;5034140;28;20383;-72
2022/07/31 01:22:35;;;;;;;1999.90;999.90;;;22.20;99.90;;;;;;5031541;28;20737;-71
2022/07/31 01:25:16;;;;;;;1999.90;999.90;;;22.30;99.90;;;;;;5030137;28;20514;-71
2022/07/31 01:28:06;;;;;;;1999.90;999.90;;;22.20;99.90;;;;;;5030085;28;20407;-72
2022/07/31 01:30:38;;;;;;;1999.90;999.90;;;22.20;99.90;;;;;;5030157;28;20378;-71
2022/07/31 01:33:09;;;;;;;1999.90;999.90;;;22.20;99.90;;;;;;5030376;28;20415;-74
2022/07/31 01:35:41;;;;;;;1999.90;999.90;;;22.20;99.90;;;;;;5032105;28;20432;-74
2022/07/31 01:38:35;;;;;;;1999.90;999.90;;;22.10;99.90;;;;;;5030493;28;20377;-71
2022/07/31 01:41:06;;;;;;;1999.90;999.90;;;22.10;99.90;;;;;;5026133;28;20389;-71
2022/07/31 01:43:36;;;;;;;1999.90;999.90;;;22.20;99.90;;;;;;5027525;28;20386;-74
2022/07/31 01:46:03;;;;;;;1999.90;999.90;;;22.20;99.90;;;;;;5027145;28;20833;-73
2022/07/31 01:48:32;;;;;;;1999.90;999.90;;;22.20;99.90;;;;;;5027245;28;20414;-74
2022/07/31 01:51:01;;;;;;;1999.90;999.90;;;22.20;99.90;;;;;;5028527;28;20411;-73
2022/07/31 01:53:30;;;;;;;1999.90;999.90;;;22.10;99.90;;;;;;5027927;28;20388;-73
2022/07/31 01:55:57;;;;;;;1999.90;999.90;;;22.10;99.90;;;;;;5025489;28;20434;-72
2022/07/31 01:58:25;;;;;;;1999.90;999.90;;;22.10;99.90;;;;;;5027254;28;20377;-73
2022/07/31 02:00:54;;;;;;;1999.90;999.90;;;22.10;99.90;;;;;;5029578;28;20389;-73
2022/07/31 02:03:21;;;;;;;1999.90;999.90;;;21.90;99.90;;;;;;5027942;28;20424;-73
2022/07/31 02:05:47;;;;;;;1999.90;999.90;;;22.00;99.90;;;;;;5028800;28;20467;-74
2022/07/31 02:08:17;;;;;;;1999.90;999.90;;;22.00;99.90;;;;;;5027447;28;20373;-73
2022/07/31 02:10:45;;;;;;;1999.90;999.90;;;21.90;99.90;;;;;;5026906;28;20405;-73
2022/07/31 02:13:12;;;;;;;1999.90;999.90;;;21.80;99.90;;;;;;5011401;28;20443;-73
2022/07/31 02:15:43;;;;;;;1999.90;999.90;;;21.70;99.90;;;;;;5030088;28;20606;-74
2022/07/31 02:18:09;;;;;;;1999.90;999.90;;;21.50;99.90;;;;;;5028922;28;20497;-73
2022/07/31 02:20:37;;;;;;;1999.90;999.90;;;21.50;99.90;;;;;;5029388;28;20413;-74
2022/07/31 02:23:03;;;;;;;1999.90;999.90;;;21.40;99.90;;;;;;5030333;28;20894;-72
2022/07/31 02:25:30;;;;;;;1999.90;999.90;;;21.40;99.90;;;;;;5032277;28;20504;-71
2022/07/31 02:27:59;;;;;;;1999.90;999.90;;;21.40;99.90;;;;;;5033777;28;20191;-72
2022/07/31 02:30:27;;;;;;;1999.90;999.90;;;21.40;99.90;;;;;;5032853;28;20421;-72
2022/07/31 02:32:53;;;;;;;1999.90;999.90;;;21.30;99.90;;;;;;5032166;28;20404;-74
2022/07/31 02:35:20;;;;;;;1999.90;999.90;;;21.50;99.90;;;;;;5035345;28;20434;-73
2022/07/31 02:37:49;;;;;;;1999.90;999.90;;;21.50;99.90;;;;;;5036040;28;20416;-73
2022/07/31 02:40:15;;;;;;;1999.90;999.90;;;21.50;99.90;;;;;;5035879;28;20388;-74
2022/07/31 02:42:42;;;;;;;1999.90;999.90;;;21.50;99.90;;;;;;5036424;28;20419;-74
2022/07/31 02:45:10;;;;;;;1999.90;999.90;;;21.60;99.90;;;;;;5036894;28;20437;-73
2022/07/31 02:47:36;;;;;;;1999.90;999.90;;;21.70;99.90;;;;;;5037582;28;20415;-73
2022/07/31 02:50:03;;;;;;;1999.90;999.90;;;21.70;99.90;;;;;;5037564;28;20503;-74
2022/07/31 02:52:29;;;;;;;1999.90;999.90;;;21.80;99.90;;;;;;5036581;28;20403;-73
2022/07/31 02:54:57;;;;;;;1999.90;999.90;;;21.80;99.90;;;;;;5035543;28;20437;-73
2022/07/31 02:57:23;;;;;;;1999.90;999.90;;;21.80;99.90;;;;;;5036347;28;20210;-74
2022/07/31 02:59:49;;;;;;;1999.90;999.90;;;21.80;99.90;;;;;;5037760;28;20397;-74
2022/07/31 03:02:14;;;;;;;1999.90;999.90;;;21.80;99.90;;;;;;5037335;28;20430;-74
2022/07/31 03:04:40;;;;;;;1999.90;999.90;;;21.80;99.90;;;;;;5036389;28;20208;-74
2022/07/31 03:07:06;;;;;;;1999.90;999.90;;;21.80;99.90;;;;;;5037397;28;20173;-74
2022/07/31 03:09:31;;;;;;;1999.90;999.90;;;21.90;99.90;;;;;;5037850;28;20184;-74
2022/07/31 03:11:57;;;;;;;1999.90;999.90;;;21.90;99.90;;;;;;5034919;28;20207;-74
2022/07/31 03:14:24;;;;;;;1999.90;999.90;;;21.90;99.90;;;;;;5033691;28;20196;-74
2022/07/31 03:16:51;;;;;;;1999.90;999.90;;;21.90;99.90;;;;;;5032260;28;20401;-73
2022/07/31 03:19:22;;;;;;;1999.90;999.90;;;21.90;99.90;;;;;;5033121;28;20425;-74
2022/07/31 03:21:49;;;;;;;1999.90;999.90;;;21.90;99.90;;;;;;5032980;28;20483;-74
2022/07/31 03:24:16;;;;;;;1999.90;999.90;;;21.80;99.90;;;;;;5033777;28;20389;-73
2022/07/31 03:26:42;;;;;;;1999.90;999.90;;;21.80;99.90;;;;;;5034178;28;20470;-73
2022/07/31 03:29:08;;;;;;;1999.90;999.90;;;21.80;99.90;;;;;;5031757;28;20424;-74
2022/07/31 03:31:33;;;;;;;1999.90;999.90;;;21.80;99.90;;;;;;5031345;28;20176;-72
2022/07/31 03:34:00;;;;;;;1999.90;999.90;;;21.70;99.90;;;;;;5032631;28;20240;-74
2022/07/31 03:36:26;;;;;;;1999.90;999.90;;;21.70;99.90;;;;;;5035273;28;20226;-71
2022/07/31 03:38:52;;;;;;;1999.90;999.90;;;21.80;99.90;;;;;;5033636;28;20434;-72
2022/07/31 03:41:18;;;;;;;1999.90;999.90;;;21.80;99.90;;;;;;5034551;28;20381;-72
2022/07/31 03:43:45;;;;;;;1999.90;999.90;;;21.80;99.90;;;;;;5031804;28;20393;-72
2022/07/31 03:46:13;;;;;;;1999.90;999.90;;;21.70;99.90;;;;;;5031089;28;20445;-72
2022/07/31 03:48:40;;;;;;;1999.90;999.90;;;21.70;99.90;;;;;;5033300;28;20384;-72
2022/07/31 03:51:06;;;;;;;1999.90;999.90;;;21.70;99.90;;;;;;5031040;28;20416;-72
2022/07/31 03:53:32;;;;;;;1999.90;999.90;;;21.60;99.90;;;;;;5029636;28;20409;-72
2022/07/31 03:55:59;;;;;;;1999.90;999.90;;;21.60;99.90;;;;;;5029828;28;20437;-71
2022/07/31 03:58:24;;;;;;;1999.90;999.90;;;21.50;99.90;;;;;;5031044;28;20485;-72
2022/07/31 04:00:51;;;;;;;1999.90;999.90;;;21.50;99.90;;;;;;5029767;28;20410;-73
2022/07/31 04:03:16;;;;;;;1999.90;999.90;;;21.50;99.90;;;;;;5029067;28;20194;-73
2022/07/31 04:05:42;;;;;;;1999.90;999.90;;;21.40;99.90;;;;;;5027129;28;20469;-74
2022/07/31 04:08:09;;;;;;;1999.90;999.90;;;21.40;99.90;;;;;;5032310;28;20171;-73
2022/07/31 04:10:36;;;;;;;1999.90;999.90;;;21.40;99.90;;;;;;5030069;28;20748;-74
2022/07/31 04:13:04;;;;;;;1999.90;999.90;;;21.30;99.90;;;;;;5031108;28;20412;-74
2022/07/31 04:15:31;;;;;;;1999.90;999.90;;;21.30;99.90;;;;;;5029125;28;20426;-73
2022/07/31 04:17:57;;;;;;;1999.90;999.90;;;21.30;99.90;;;;;;5026441;28;20428;-73
2022/07/31 04:20:22;;;;;;;1999.90;999.90;;;21.30;99.90;;;;;;5027842;28;20411;-74
2022/07/31 04:22:48;;;;;;;1999.90;999.90;;;21.30;99.90;;;;;;5026694;28;20166;-74
2022/07/31 04:25:15;;;;;;;1999.90;999.90;;;21.30;99.90;;;;;;5027943;28;20210;-74
2022/07/31 04:27:41;;;;;;;1999.90;999.90;;;21.30;99.90;;;;;;5026264;28;20376;-74
2022/07/31 04:30:07;;;;;;;1999.90;999.90;;;21.30;99.90;;;;;;5028366;28;20382;-74
2022/07/31 04:32:35;;;;;;;1999.90;999.90;;;21.20;99.90;;;;;;5026856;28;20171;-74
2022/07/31 04:35:01;;;;;;;1999.90;999.90;;;21.20;99.90;;;;;;5026861;28;20415;-74
2022/07/31 04:37:27;;;;;;;1999.90;999.90;;;21.10;99.90;;;;;;5028303;28;20413;-74
2022/07/31 04:39:53;;;;;;;1999.90;999.90;;;21.10;99.90;;;;;;5030572;28;20490;-73
2022/07/31 04:42:19;;;;;;;1999.90;999.90;;;21.10;99.90;;;;;;5030553;28;20914;-71
2022/07/31 04:44:45;;;;;;;1999.90;999.90;;;21.10;99.90;;;;;;5028231;28;20470;-72
2022/07/31 04:47:11;;;;;;;1999.90;999.90;;;21.10;99.90;;;;;;5029842;28;20451;-72
2022/07/31 04:49:36;;;;;;;1999.90;999.90;;;21.00;99.90;;;;;;5032915;28;20197;-74
2022/07/31 04:52:03;;;;;;;1999.90;999.90;;;21.00;99.90;;;;;;5032079;28;20198;-73
2022/07/31 04:54:28;;;;;;;1999.90;999.90;;;21.00;99.90;;;;;;5029109;28;20239;-73
2022/07/31 04:56:54;;;;;;;1999.90;999.90;;;21.00;99.90;;;;;;5026975;28;20431;-73
2022/07/31 04:59:21;;;;;;;1999.90;999.90;;;20.90;99.90;;;;;;5029130;28;20163;-74
2022/07/31 05:01:48;;;;;;;1999.90;999.90;;;21.00;99.90;;;;;;5029885;28;20406;-74
2022/07/31 05:04:14;;;;;;;1999.90;999.90;;;21.10;99.90;;;;;;5029362;28;20422;-74
2022/07/31 05:06:44;;;;;;;1999.90;999.90;;;21.10;99.90;;;;;;5058414;23;20499;-66
2022/07/31 05:09:12;;;;;;;1999.90;999.90;;;21.10;99.90;;;;;;5033098;28;20436;-65
2022/07/31 05:11:39;;;;;;;1999.90;999.90;;;21.20;99.90;;;;;;5033096;28;20382;-67
2022/07/31 05:14:06;;;;;;;1999.90;999.90;;;21.30;99.90;;;;;;5033107;28;20452;-66
2022/07/31 05:16:33;;;;;;;1999.90;999.90;;;21.30;99.90;;;;;;5032579;28;20514;-65
2022/07/31 05:18:59;;;;;;;1999.90;999.90;;;21.30;99.90;;;;;;5032883;28;20469;-65
2022/07/31 05:21:31;;;;;;;1999.90;999.90;;;21.30;99.90;;;;;;5032739;28;20382;-65
2022/07/31 05:23:59;;;;;;;1999.90;999.90;;;21.30;99.90;;;;;;5032844;28;20738;-66
2022/07/31 05:26:25;;;;;;;1999.90;999.90;;;21.30;99.90;;;;;;5032354;28;20451;-65
2022/07/31 05:28:54;;;;;;;1999.90;999.90;;;21.30;99.90;;;;;;5032671;28;20428;-66
2022/07/31 05:31:20;;;;;;;1999.90;999.90;;;21.40;99.90;;;;;;5032606;28;21029;-65
2022/07/31 05:33:47;;;;;;;1999.90;999.90;;;21.40;99.90;;;;;;5032593;28;20379;-66
2022/07/31 05:36:14;;;;;;;1999.90;999.90;;;21.40;99.90;;;;;;5032261;28;20227;-66
2022/07/31 05:38:40;;;;;;;1999.90;999.90;;;21.30;99.90;;;;;;5032490;28;20464;-65
2022/07/31 05:41:06;;;;;;;1999.90;999.90;;;21.20;99.90;;;;;;5032504;28;20404;-65
2022/07/31 05:43:32;;;;;;;1999.90;999.90;;;21.20;99.90;;;;;;5032463;28;20403;-65
2022/07/31 05:45:57;;;;;;;1999.90;999.90;;;21.20;99.90;;;;;;5032179;28;20232;-66
2022/07/31 05:48:23;;;;;;;1999.90;999.90;;;21.30;99.90;;;;;;5032345;28;20164;-65
2022/07/31 05:50:49;;;;;;;1999.90;999.90;;;21.20;99.90;;;;;;5032306;28;20171;-65
2022/07/31 05:53:16;;;;;;;1999.90;999.90;;;21.20;99.90;;;;;;5032363;28;20170;-66
2022/07/31 05:55:43;;;;;;;1999.90;999.90;;;21.20;99.90;;;;;;5032254;28;20507;-66
2022/07/31 05:58:08;;;;;;;1999.90;999.90;;;21.10;99.90;;;;;;5031984;28;20408;-66
2022/07/31 06:00:35;;;;;;;1999.90;999.90;;;21.10;99.90;;;;;;5032518;28;20408;-66
2022/07/31 06:03:01;;;;;;;1999.90;999.90;;;21.10;99.90;;;;;;5032238;28;20554;-67
2022/07/31 06:05:28;;;;;;;1999.90;999.90;;;21.20;99.90;;;;;;5032032;28;20468;-67
2022/07/31 06:07:54;;;;;;;1999.90;999.90;;;21.20;99.90;;;;;;5031899;28;20410;-67
2022/07/31 06:10:20;;;;;;;1999.90;999.90;;;21.20;99.90;;;;;;5032157;28;20450;-67
2022/07/31 06:12:45;;;;;;;1999.90;999.90;;;21.20;99.90;;;;;;5032245;28;20956;-67
2022/07/31 06:15:11;;;;;;;1999.90;999.90;;;21.20;99.90;;;;;;5032128;28;20188;-67
2022/07/31 06:17:41;;;;;;;1999.90;999.90;;;21.20;99.90;;;;;;5032108;28;20169;-67
2022/07/31 06:20:08;;;;;;;1999.90;999.90;;;21.20;99.90;;;;;;5032532;28;20200;-66
2022/07/31 06:22:34;;;;;;;1999.90;999.90;;;21.10;99.90;;;;;;5032115;28;20469;-67
2022/07/31 06:25:00;;;;;;;1999.90;999.90;;;21.10;99.90;;;;;;5031894;28;20481;-67
2022/07/31 06:27:25;;;;;;;1999.90;999.90;;;21.00;99.90;;;;;;5031584;28;20468;-67
2022/07/31 06:29:51;;;;;;;1999.90;999.90;;;20.90;99.90;;;;;;5031909;28;20778;-66
2022/07/31 06:32:17;;;;;;;1999.90;999.90;;;21.10;99.90;;;;;;5031764;28;20162;-66
2022/07/31 06:34:43;;;;;;;1999.90;999.90;;;21.10;99.90;;;;;;5031769;28;20535;-66
2022/07/31 06:37:09;;;;;;;1999.90;999.90;;;21.10;99.90;;;;;;5031485;28;20189;-66
2022/07/31 06:39:35;;;;;;;1999.90;999.90;;;21.10;99.90;;;;;;5031963;28;20379;-67
2022/07/31 06:42:00;;;;;;;1999.90;999.90;;;21.10;99.90;;;;;;5031756;28;20235;-65
2022/07/31 06:44:26;;;;;;;1999.90;999.90;;;21.10;99.90;;;;;;5031770;28;20240;-66
2022/07/31 06:46:52;;;;;;;1999.90;999.90;;;21.00;99.90;;;;;;5031177;28;20204;-67
2022/07/31 06:49:18;;;;;;;1999.90;999.90;;;20.90;99.90;;;;;;5031702;28;20407;-66
2022/07/31 06:51:44;;;;;;;1999.90;999.90;;;21.00;99.90;;;;;;5031671;28;20250;-66
2022/07/31 06:54:10;;;;;;;1999.90;999.90;;;20.90;99.90;;;;;;5031701;28;20410;-65
2022/07/31 06:56:37;;;;;;;1999.90;999.90;;;20.90;99.90;;;;;;5031288;28;20421;-65
2022/07/31 06:59:04;;;;;;;1999.90;999.90;;;20.90;99.90;;;;;;5031596;28;20404;-67
2022/07/31 07:01:30;;;;;;;1999.90;999.90;;;20.90;99.90;;;;;;5031623;28;20425;-67
2022/07/31 07:03:56;;;;;;;1999.90;999.90;;;20.90;99.90;;;;;;5031590;28;20821;-66
2022/07/31 07:06:22;;;;;;;1999.90;999.90;;;20.80;99.90;;;;;;5031048;28;20487;-66
2022/07/31 07:08:48;;;;;;;1999.90;999.90;;;20.80;99.90;;;;;;5031524;28;20638;-65
2022/07/31 07:11:14;;;;;;;1999.90;999.90;;;20.90;99.90;;;;;;5031542;28;20462;-66
2022/07/31 07:13:40;;;;;;;1999.90;999.90;;;20.90;99.90;;;;;;5031461;28;20411;-66
2022/07/31 07:16:06;;;;;;;1999.90;999.90;;;20.80;99.90;;;;;;5031165;28;20195;-66
2022/07/31 07:18:32;;;;;;;1999.90;999.90;;;20.90;99.90;;;;;;5032295;28;20408;-66
2022/07/31 07:20:57;;;;;;;1999.90;999.90;;;20.80;99.90;;;;;;5035223;28;20462;-66
2022/07/31 07:23:23;;;;;;;1999.90;999.90;;;20.90;99.90;;;;;;5035129;28;20174;-65
2022/07/31 07:25:50;;;;;;;1999.90;999.90;;;21.00;99.90;;;;;;5034828;28;20197;-67
2022/07/31 07:28:16;;;;;;;1999.90;999.90;;;21.20;99.90;;;;;;5034802;28;20214;-68
2022/07/31 07:30:42;;;;;;;1999.90;999.90;;;21.40;99.90;;;;;;5034938;28;20466;-67
2022/07/31 07:33:07;;;;;;;1999.90;999.90;;;21.50;99.90;;;;;;5034874;28;20414;-66
2022/07/31 07:35:33;;;;;;;1999.90;999.90;;;21.50;99.90;;;;;;5035094;28;20409;-67
2022/07/31 07:37:59;;;;;;;1999.90;999.90;;;21.70;99.90;;;;;;5034948;28;20202;-66
2022/07/31 07:40:25;;;;;;;1999.90;999.90;;;21.90;99.90;;;;;;5034990;28;20175;-66
2022/07/31 07:42:52;;;;;;;1999.90;999.90;;;22.00;99.90;;;;;;5034716;28;20175;-66
2022/07/31 07:45:18;;;;;;;1999.90;999.90;;;22.00;99.90;;;;;;5034512;28;20522;-67
2022/07/31 07:47:43;;;;;;;1999.90;999.90;;;22.30;99.90;;;;;;5034371;28;20393;-67
2022/07/31 07:50:11;;;;;;;1999.90;999.90;;;22.40;99.90;;;;;;5034595;28;20179;-68
2022/07/31 07:52:37;;;;;;;1999.90;999.90;;;22.50;99.90;;;;;;5034601;28;20636;-66
2022/07/31 07:55:05;;;;;;;1999.90;999.90;;;22.50;99.90;;;;;;5034440;28;20784;-66
2022/07/31 07:57:31;;;;;;;1999.90;999.90;;;22.60;99.90;;;;;;5034089;28;20409;-65
2022/07/31 08:00:00;;;;;;;1999.90;999.90;;;22.40;99.90;;;;;;5034472;28;20428;-66
2022/07/31 08:02:26;;;;;;;1999.90;999.90;;;22.40;99.90;;;;;;5034363;28;20820;-66
2022/07/31 08:04:52;;;;;;;1999.90;999.90;;;22.40;99.90;;;;;;5034108;28;20428;-67
2022/07/31 08:07:29;;;;;;;1999.90;999.90;;;22.50;99.90;;;;;;5033972;28;20172;-67
2022/07/31 08:09:58;;;;;;;1999.90;999.90;;;22.60;99.90;;;;;;5034217;28;20174;-67
2022/07/31 08:12:25;;;;;;;1999.90;999.90;;;22.70;99.90;;;;;;5034093;28;20414;-65
2022/07/31 08:14:51;;;;;;;1999.90;999.90;;;22.80;99.90;;;;;;5034035;28;20410;-65
2022/07/31 08:17:17;;;;;;;1999.90;999.90;;;22.90;99.90;;;;;;5033865;28;20389;-65
2022/07/31 08:19:43;;;;;;;1999.90;999.90;;;23.00;99.90;;;;;;5034056;28;20506;-67
2022/07/31 08:22:09;;;;;;;1999.90;999.90;;;23.00;99.90;;;;;;5034018;28;20490;-66
2022/07/31 08:24:34;;;;;;;1999.90;999.90;;;23.10;99.90;;;;;;5033812;28;20694;-66
2022/07/31 08:29:44;;;;;;;1999.90;999.90;;;23.40;99.90;;;;;;5034134;28;20594;-67
2022/07/31 08:32:11;;;;;;;1999.90;999.90;;;23.60;99.90;;;;;;5033796;28;20389;-67
2022/07/31 08:34:37;;;;;;;1999.90;999.90;;;23.70;99.90;;;;;;5033763;28;20168;-67
2022/07/31 08:37:05;;;;;;;1999.90;999.90;;;23.90;99.90;;;;;;5033289;28;20926;-67
2022/07/31 08:39:31;;;;;;;1999.90;999.90;;;24.00;99.90;;;;;;5034004;28;20411;-67
2022/07/31 08:41:57;;;;;;;1999.90;999.90;;;24.10;99.90;;;;;;5033553;28;20442;-65
2022/07/31 08:44:22;;;;;;;1999.90;999.90;;;24.10;99.90;;;;;;5033492;28;20816;-65
2022/07/31 08:46:51;;;;;;;1999.90;999.90;;;23.90;99.90;;;;;;5033255;28;20206;-66
2022/07/31 08:49:19;;;;;;;1999.90;999.90;;;24.00;99.90;;;;;;5033415;28;20172;-66
2022/07/31 08:51:45;;;;;;;1999.90;999.90;;;24.00;99.90;;;;;;5033365;28;20407;-66
2022/07/31 08:54:10;;;;;;;1999.90;999.90;;;24.00;99.90;;;;;;5033408;28;20450;-65
2022/07/31 08:56:37;;;;;;;1999.90;999.90;;;24.00;99.90;;;;;;5032876;28;20219;-66
2022/07/31 08:59:03;;;;;;;1999.90;999.90;;;23.90;99.90;;;;;;5033215;28;20415;-65
2022/07/31 09:01:31;;;;;;;1999.90;999.90;;;23.90;99.90;;;;;;5033223;28;20561;-65
2022/07/31 09:03:58;;;;;;;1999.90;999.90;;;23.70;99.90;;;;;;5033287;28;20790;-66
2022/07/31 09:06:24;;;;;;;1999.90;999.90;;;23.70;99.90;;;;;;5032609;28;20437;-66
2022/07/31 09:08:50;;;;;;;1999.90;999.90;;;23.70;99.90;;;;;;5033136;28;20403;-66
2022/07/31 09:11:15;;;;;;;1999.90;999.90;;;23.70;99.90;;;;;;5033039;28;20264;-66
2022/07/31 09:13:57;;;;;;;1999.90;999.90;;;23.80;99.90;;;;;;5033157;28;20402;-66
2022/07/31 09:16:24;;;;;;;1999.90;999.90;;;23.80;99.90;;;;;;5032883;28;20208;-66
2022/07/31 09:19:01;;;;;;;1999.90;999.90;;;24.00;99.90;;;;;;5032647;28;20414;-67
2022/07/31 09:21:38;;;;;;;1999.90;999.90;;;24.00;99.90;;;;;;5031438;28;20444;-65
2022/07/31 09:24:03;;;;;;;1999.90;999.90;;;24.00;99.90;;;;;;5016843;28;20388;-66
2022/07/31 09:26:33;;;;;;;1999.90;999.90;;;24.00;99.90;;;;;;5031552;28;20470;-66
2022/07/31 09:29:02;;;;;;;1999.90;999.90;;;23.70;99.90;;;;;;5031861;28;20200;-66
2022/07/31 09:31:34;;;;;;;1999.90;999.90;;;23.50;99.90;;;;;;5032198;28;20381;-65
2022/07/31 09:34:00;;;;;;;1999.90;999.90;;;23.40;99.90;;;;;;5032076;28;20468;-66
2022/07/31 09:36:26;;;;;;;1999.90;999.90;;;23.50;99.90;;;;;;5031842;28;20398;-65
2022/07/31 09:38:52;;;;;;;1999.90;999.90;;;23.60;99.90;;;;;;5031928;28;20389;-65
2022/07/31 09:41:21;;;;;;;1999.90;999.90;;;23.80;99.90;;;;;;5031246;28;20443;-66
2022/07/31 09:44:01;;;;;;;1999.90;999.90;;;24.10;99.90;;;;;;5031824;28;20403;-65
2022/07/31 09:46:41;;;;;;;1999.90;999.90;;;24.40;99.90;;;;;;5031671;28;20433;-65
2022/07/31 09:49:07;;;;;;;1999.90;999.90;;;24.50;99.90;;;;;;5031913;28;20376;-65
2022/07/31 09:51:43;;;;;;;1999.90;999.90;;;24.80;99.90;;;;;;5032156;28;20460;-66
2022/07/31 09:54:23;;;;;;;1999.90;999.90;;;25.30;99.90;;;;;;5031595;28;20168;-66
2022/07/31 09:56:49;;;;;;;1999.90;999.90;;;25.50;99.90;;;;;;5031860;28;20431;-66
2022/07/31 09:59:15;;;;;;;1999.90;999.90;;;25.70;99.90;;;;;;5031814;28;20972;-67
2022/07/31 10:01:41;;;;;;;1999.90;999.90;;;25.70;99.90;;;;;;5031795;28;20193;-66
2022/07/31 10:04:08;;;;;;;1999.90;999.90;;;25.80;99.90;;;;;;5031848;28;20465;-66
2022/07/31 10:06:35;;;;;;;1999.90;999.90;;;25.90;99.90;;;;;;5031137;28;20489;-66
2022/07/31 10:09:03;;;;;;;1999.90;999.90;;;26.00;99.90;;;;;;5031675;28;20404;-66
2022/07/31 10:11:31;;;;;;;1999.90;999.90;;;25.90;99.90;;;;;;5031723;28;20418;-65
2022/07/31 10:14:01;;;;;;;1999.90;999.90;;;26.10;99.90;;;;;;5031515;28;20407;-66
2022/07/31 10:16:31;;;;;;;1999.90;999.90;;;26.10;99.90;;;;;;5031127;28;20457;-65
2022/07/31 10:19:00;;;;;;;1999.90;999.90;;;26.20;99.90;;;;;;5031669;28;20407;-66
2022/07/31 10:21:32;;;;;;;1999.90;999.90;;;26.40;99.90;;;;;;5031456;28;20410;-66
2022/07/31 10:24:01;;;;;;;1999.90;999.90;;;26.60;99.90;;;;;;5031507;28;20830;-66
2022/07/31 10:26:28;;;;;;;1999.90;999.90;;;26.70;99.90;;;;;;5031145;28;20458;-66
2022/07/31 10:28:54;;;;;;;1999.90;999.90;;;26.70;99.90;;;;;;5031572;28;20395;-65
2022/07/31 10:31:20;;;;;;;1999.90;999.90;;;26.80;99.90;;;;;;5031504;28;20834;-65
2022/07/31 10:33:46;;;;;;;1999.90;999.90;;;26.80;99.90;;;;;;5031187;28;20431;-64
2022/07/31 10:36:24;;;;;;;1999.90;999.90;;;26.90;99.90;;;;;;5030901;28;20696;-65
2022/07/31 10:38:57;;;;;;;1999.90;999.90;;;26.90;99.90;;;;;;5031310;28;20497;-65
2022/07/31 10:41:46;;;;;;;1999.90;999.90;;;26.80;99.90;;;;;;5031371;28;20731;-65
2022/07/31 10:44:14;;;;;;;1999.90;999.90;;;26.80;99.90;;;;;;5031321;28;20411;-65
2022/07/31 10:46:40;;;;;;;1999.90;999.90;;;26.70;99.90;;;;;;5031031;28;20454;-65
2022/07/31 10:49:05;;;;;;;1999.90;999.90;;;26.60;99.90;;;;;;5031081;28;20419;-65
2022/07/31 10:51:31;;;;;;;1999.90;999.90;;;26.60;99.90;;;;;;5031302;28;20887;-65
2022/07/31 10:54:02;;;;;;;1999.90;999.90;;;26.80;99.90;;;;;;5033025;28;20703;-65
2022/07/31 10:56:39;;;;;;;1999.90;999.90;;;27.00;99.90;;;;;;5034956;28;20226;-66
2022/07/31 10:59:05;;;;;;;1999.90;999.90;;;27.30;99.90;;;;;;5035258;28;20500;-66
2022/07/31 11:01:31;;;;;;;1999.90;999.90;;;27.30;99.90;;;;;;5035301;28;20447;-67
2022/07/31 11:04:03;;;;;;;1999.90;999.90;;;27.10;99.90;;;;;;5035179;28;20176;-67
2022/07/31 11:06:43;;;;;;;1999.90;999.90;;;26.90;99.90;;;;;;5035246;28;20577;-65
2022/07/31 11:09:20;;;;;;;1999.90;999.90;;;27.10;99.90;;;;;;5034965;28;20391;-65
2022/07/31 11:11:45;;;;;;;1999.90;999.90;;;27.20;99.90;;;;;;5034853;28;20468;-65
2022/07/31 11:14:11;;;;;;;1999.90;999.90;;;27.70;99.90;;;;;;5034669;28;20929;-64
2022/07/31 11:16:54;;;;;;;1999.90;999.90;;;27.80;99.90;;;;;;5035009;28;20242;-66
2022/07/31 11:19:20;;;;;;;1999.90;999.90;;;27.50;99.90;;;;;;5034708;28;20190;-66
2022/07/31 11:21:46;;;;;;;1999.90;999.90;;;27.30;99.90;;;;;;5034467;28;20399;-65
2022/07/31 11:24:20;;;;;;;1999.90;999.90;;;27.40;99.90;;;;;;5034693;28;20657;-65
2022/07/31 11:26:58;;;;;;;1999.90;999.90;;;27.40;99.90;;;;;;5034148;28;20283;-66
2022/07/31 11:29:26;;;;;;;1999.90;999.90;;;27.70;99.90;;;;;;5034598;28;20453;-66
2022/07/31 11:31:51;;;;;;;1999.90;999.90;;;28.30;99.90;;;;;;5034454;28;20760;-66
2022/07/31 11:34:17;;;;;;;1999.90;999.90;;;28.90;99.90;;;;;;5034248;28;20395;-66
2022/07/31 11:36:43;;;;;;;1999.90;999.90;;;28.90;99.90;;;;;;5033911;28;20609;-66
2022/07/31 11:39:11;;;;;;;1999.90;999.90;;;29.00;99.90;;;;;;5034422;28;20195;-65
2022/07/31 11:41:37;;;;;;;1999.90;999.90;;;29.20;99.30;;;;;;5034499;28;20172;-65
2022/07/31 11:44:03;;;;;;;1999.90;999.90;;;29.00;97.60;;;;;;5034683;28;20465;-66
2022/07/31 11:46:33;;;;;;;1999.90;999.90;;;29.20;98.40;;;;;;5033760;28;20458;-66
2022/07/31 11:49:00;;;;;;;1999.90;999.90;;;29.50;97.70;;;;;;5034147;28;20263;-65
2022/07/31 11:51:27;;;;;;;1999.90;999.90;;;29.70;96.80;;;;;;5034308;28;20410;-66
2022/07/31 11:53:56;;;;;;;1999.90;999.90;;;29.60;95.80;;;;;;5033972;28;20403;-65
2022/07/31 11:56:23;;;;;;;1999.90;999.90;;;29.30;95.90;;;;;;5033483;28;20426;-66
2022/07/31 11:58:52;;;;;;;1999.90;999.90;;;29.20;94.70;;;;;;5016494;28;20402;-66
2022/07/31 12:01:18;;;;;;;1999.90;999.90;;;29.30;95.30;;;;;;5033845;28;20418;-66
2022/07/31 12:03:49;;;;;;;1999.90;999.90;;;29.30;95.30;;;;;;5033632;28;20425;-66